LGPZ

Details ICAO LGPZ (PVK)
Name AKTIO
Region Greece
Timezone Europe/Athens (UTC+2.0)
Plans Departing 32
Arriving 59
Stats Elevation 11 ft / 3 m (AMSL)
Location 38.925465° 20.765311°
Runways 1
Magnetic Variation 4.158° E
Sunrise 2017-12-11 05:46:55 UTC / 2017-12-11 07:46:55 Local
Sunset 2017-12-11 15:16:20 UTC / 2017-12-11 17:16:20 Local
Advertisement - Login to hide

Runways

ID Width Length Bearing (true) Bearing (mag) Surface Threshold Offset Overrun Length
07L 148 ft / 45 m 9,404 ft / 2,866 m 67.79° 63.63° Asphalt 0 ft / 0 m 80 ft / 24 m
25R 148 ft / 45 m 9,404 ft / 2,866 m 247.81° 243.65° Asphalt 492 ft / 150 m 380 ft / 116 m

Map

Weather


0- 5 10 15 20 25 30 35+ Temperature / ° C

Clouds and Precipitation
Forecast for 2017-12-11 12:00 UTC. Updated 2 hours ago

Ground ~20,000 ft ~40,000 ft Winds

METAR

LGPZ 110850Z 07007KT 9999 SCT025 BKN070 10/06 Q1025 BLU

TAF

TAF TAF LGPZ 110500Z 1106/1206 06010KT 9999 SCT025 BKN080 TEMPO 1106/1206 BKN025 BKN080 PROB30 TEMPO 1106/1206 7000 RA BECMG 1110/1112 12010KT

Frequencies

Tower 122.10 MHz TWR
Approach 120.45 MHz APP
Tower 120.45 MHz TWR
Approach 122.10 MHz APP
Warning: Do not use this data for real-world aviation or navigation. No guarantee of current accuracy is given.